Terminal Aerodrome Forecast
Issued by NWS

Home | Current Version | Previous Version | Text Only | Print | Product List | Glossary On
Versions: 1 2 3 4 5 6 7 8 9 10 11 12 13 14 15 16 17 18 19 20 21 22 23 24 25 26 27 28 29 30
000
FTUS41 KBUF 120500
TAFJHW
TAF
KJHW 120538Z 1206/1306 00000KT P6SM BKN250
     FM120900 00000KT P6SM SCT130
     FM121400 21004KT P6SM FEW045 SCT250
     FM121800 25006KT P6SM FEW045 SCT250
     FM130000 VRB03KT P6SM SCT090
      AMD LTD TO CLD VIS AND WIND=

USA.gov is the U.S. government's official web portal to all federal, state and local government web resources and services.